sensor_id;sensor_type;location;lat;lon;timestamp;temperature;humidity
57833;DHT22;43667;53.036;6.740;2023-08-08T00:00:07;12.30;99.90
57833;DHT22;43667;53.036;6.740;2023-08-08T00:02:34;12.30;99.90
57833;DHT22;43667;53.036;6.740;2023-08-08T00:04:59;12.20;99.90
57833;DHT22;43667;53.036;6.740;2023-08-08T00:07:25;12.30;99.90
57833;DHT22;43667;53.036;6.740;2023-08-08T00:09:51;12.30;99.90
57833;DHT22;43667;53.036;6.740;2023-08-08T00:12:17;12.30;99.90
57833;DHT22;43667;53.036;6.740;2023-08-08T00:14:42;12.30;99.90
57833;DHT22;43667;53.036;6.740;2023-08-08T00:17:08;12.30;99.90
57833;DHT22;43667;53.036;6.740;2023-08-08T00:19:33;12.30;99.90
57833;DHT22;43667;53.036;6.740;2023-08-08T00:21:59;12.30;99.90
57833;DHT22;43667;53.036;6.740;2023-08-08T00:24:25;12.70;99.90
57833;DHT22;43667;53.036;6.740;2023-08-08T00:26:50;12.30;99.90
57833;DHT22;43667;53.036;6.740;2023-08-08T00:29:16;12.40;99.90
57833;DHT22;43667;53.036;6.740;2023-08-08T00:31:42;12.50;99.90
57833;DHT22;43667;53.036;6.740;2023-08-08T00:34:07;12.30;99.90
57833;DHT22;43667;53.036;6.740;2023-08-08T00:36:33;12.30;99.90
57833;DHT22;43667;53.036;6.740;2023-08-08T00:38:58;12.20;99.90
57833;DHT22;43667;53.036;6.740;2023-08-08T00:41:25;12.30;99.90
57833;DHT22;43667;53.036;6.740;2023-08-08T00:43:51;12.30;99.90
57833;DHT22;43667;53.036;6.740;2023-08-08T00:46:19;12.30;99.90
57833;DHT22;43667;53.036;6.740;2023-08-08T00:48:46;12.30;99.90
57833;DHT22;43667;53.036;6.740;2023-08-08T00:51:11;12.30;99.90
57833;DHT22;43667;53.036;6.740;2023-08-08T00:53:37;12.40;99.90
57833;DHT22;43667;53.036;6.740;2023-08-08T00:56:03;12.40;99.90
57833;DHT22;43667;53.036;6.740;2023-08-08T00:58:28;12.50;99.90
57833;DHT22;43667;53.036;6.740;2023-08-08T01:03:23;12.60;99.90
57833;DHT22;43667;53.036;6.740;2023-08-08T01:05:53;12.60;99.90
57833;DHT22;43667;53.036;6.740;2023-08-08T01:08:32;12.60;99.90
57833;DHT22;43667;53.036;6.740;2023-08-08T01:11:01;12.60;99.90
57833;DHT22;43667;53.036;6.740;2023-08-08T01:13:30;12.60;99.90
57833;DHT22;43667;53.036;6.740;2023-08-08T01:15:57;12.60;99.90
57833;DHT22;43667;53.036;6.740;2023-08-08T01:18:24;12.60;99.90
57833;DHT22;43667;53.036;6.740;2023-08-08T01:20:51;12.60;99.90
57833;DHT22;43667;53.036;6.740;2023-08-08T01:23:43;12.60;99.90
57833;DHT22;43667;53.036;6.740;2023-08-08T01:26:11;12.70;99.90
57833;DHT22;43667;53.036;6.740;2023-08-08T01:33:32;12.60;99.90
57833;DHT22;43667;53.036;6.740;2023-08-08T01:36:02;12.70;99.90
57833;DHT22;43667;53.036;6.740;2023-08-08T01:38:41;12.70;99.90
57833;DHT22;43667;53.036;6.740;2023-08-08T01:41:07;12.60;99.90
57833;DHT22;43667;53.036;6.740;2023-08-08T01:43:35;12.60;99.90
57833;DHT22;43667;53.036;6.740;2023-08-08T01:46:03;12.60;99.90
57833;DHT22;43667;53.036;6.740;2023-08-08T01:48:29;12.60;99.90
57833;DHT22;43667;53.036;6.740;2023-08-08T01:50:55;12.60;99.90
57833;DHT22;43667;53.036;6.740;2023-08-08T01:53:21;12.60;99.90
57833;DHT22;43667;53.036;6.740;2023-08-08T01:55:46;12.60;99.90
57833;DHT22;43667;53.036;6.740;2023-08-08T01:58:12;12.60;99.90
57833;DHT22;43667;53.036;6.740;2023-08-08T02:00:37;12.60;99.90
57833;DHT22;43667;53.036;6.740;2023-08-08T02:03:03;12.60;99.90
57833;DHT22;43667;53.036;6.740;2023-08-08T02:05:29;12.60;99.90
57833;DHT22;43667;53.036;6.740;2023-08-08T02:07:54;12.60;99.90
57833;DHT22;43667;53.036;6.740;2023-08-08T02:10:20;12.60;99.90
57833;DHT22;43667;53.036;6.740;2023-08-08T02:12:46;12.70;99.90
57833;DHT22;43667;53.036;6.740;2023-08-08T02:15:12;12.70;99.90
57833;DHT22;43667;53.036;6.740;2023-08-08T02:17:38;12.70;99.90
57833;DHT22;43667;53.036;6.740;2023-08-08T02:20:05;12.70;99.90
57833;DHT22;43667;53.036;6.740;2023-08-08T02:22:32;12.70;99.90
57833;DHT22;43667;53.036;6.740;2023-08-08T02:24:57;12.70;99.90
57833;DHT22;43667;53.036;6.740;2023-08-08T02:27:23;12.70;99.90
57833;DHT22;43667;53.036;6.740;2023-08-08T02:29:48;12.70;99.90
57833;DHT22;43667;53.036;6.740;2023-08-08T02:32:14;12.70;99.90
57833;DHT22;43667;53.036;6.740;2023-08-08T02:34:40;13.00;99.90
57833;DHT22;43667;53.036;6.740;2023-08-08T02:37:05;12.80;99.90
57833;DHT22;43667;53.036;6.740;2023-08-08T02:39:31;12.80;99.90
57833;DHT22;43667;53.036;6.740;2023-08-08T02:41:57;13.10;99.90
57833;DHT22;43667;53.036;6.740;2023-08-08T02:44:22;12.80;99.90
57833;DHT22;43667;53.036;6.740;2023-08-08T02:46:48;12.90;99.90
57833;DHT22;43667;53.036;6.740;2023-08-08T02:49:14;12.90;99.90
57833;DHT22;43667;53.036;6.740;2023-08-08T02:51:39;12.90;99.90
57833;DHT22;43667;53.036;6.740;2023-08-08T02:54:05;12.90;99.90
57833;DHT22;43667;53.036;6.740;2023-08-08T02:56:30;12.80;99.90
57833;DHT22;43667;53.036;6.740;2023-08-08T02:58:56;12.90;99.90
57833;DHT22;43667;53.036;6.740;2023-08-08T03:01:23;12.80;99.90
57833;DHT22;43667;53.036;6.740;2023-08-08T03:03:48;12.80;99.90
57833;DHT22;43667;53.036;6.740;2023-08-08T03:06:14;12.80;99.90
57833;DHT22;43667;53.036;6.740;2023-08-08T03:08:39;12.70;99.90
57833;DHT22;43667;53.036;6.740;2023-08-08T03:11:05;12.80;99.90
57833;DHT22;43667;53.036;6.740;2023-08-08T03:13:31;12.90;99.90
57833;DHT22;43667;53.036;6.740;2023-08-08T03:15:56;12.80;99.90
57833;DHT22;43667;53.036;6.740;2023-08-08T03:18:22;12.80;99.90
57833;DHT22;43667;53.036;6.740;2023-08-08T03:20:48;12.80;99.90
57833;DHT22;43667;53.036;6.740;2023-08-08T03:23:14;13.00;99.90
57833;DHT22;43667;53.036;6.740;2023-08-08T03:25:39;12.80;99.90
57833;DHT22;43667;53.036;6.740;2023-08-08T03:28:05;12.80;99.90
57833;DHT22;43667;53.036;6.740;2023-08-08T03:30:31;12.90;99.90
57833;DHT22;43667;53.036;6.740;2023-08-08T03:32:56;12.80;99.90
57833;DHT22;43667;53.036;6.740;2023-08-08T03:35:22;12.80;99.90
57833;DHT22;43667;53.036;6.740;2023-08-08T03:37:47;12.90;99.90
57833;DHT22;43667;53.036;6.740;2023-08-08T03:40:13;13.00;99.90
57833;DHT22;43667;53.036;6.740;2023-08-08T03:42:41;12.90;99.90
57833;DHT22;43667;53.036;6.740;2023-08-08T03:45:07;13.00;99.90
57833;DHT22;43667;53.036;6.740;2023-08-08T03:47:33;13.00;99.90
57833;DHT22;43667;53.036;6.740;2023-08-08T03:49:59;13.10;99.90
57833;DHT22;43667;53.036;6.740;2023-08-08T03:52:24;12.90;99.90
57833;DHT22;43667;53.036;6.740;2023-08-08T03:54:51;12.90;99.90
57833;DHT22;43667;53.036;6.740;2023-08-08T03:57:17;12.90;99.90
57833;DHT22;43667;53.036;6.740;2023-08-08T03:59:42;12.90;99.90
57833;DHT22;43667;53.036;6.740;2023-08-08T04:02:08;12.90;99.90
57833;DHT22;43667;53.036;6.740;2023-08-08T04:04:34;12.90;99.90
57833;DHT22;43667;53.036;6.740;2023-08-08T04:06:59;13.00;99.90
57833;DHT22;43667;53.036;6.740;2023-08-08T04:09:25;13.10;99.90
57833;DHT22;43667;53.036;6.740;2023-08-08T04:11:50;13.10;99.90
57833;DHT22;43667;53.036;6.740;2023-08-08T04:14:16;13.10;99.90
57833;DHT22;43667;53.036;6.740;2023-08-08T04:16:41;12.80;99.90
57833;DHT22;43667;53.036;6.740;2023-08-08T04:19:07;13.00;99.90
57833;DHT22;43667;53.036;6.740;2023-08-08T04:21:33;13.40;99.90
57833;DHT22;43667;53.036;6.740;2023-08-08T04:23:59;13.10;99.90
57833;DHT22;43667;53.036;6.740;2023-08-08T04:26:25;13.20;99.90
57833;DHT22;43667;53.036;6.740;2023-08-08T04:28:51;13.00;99.90
57833;DHT22;43667;53.036;6.740;2023-08-08T04:31:18;13.20;99.90
57833;DHT22;43667;53.036;6.740;2023-08-08T04:33:43;13.20;99.90
57833;DHT22;43667;53.036;6.740;2023-08-08T04:36:09;13.10;99.90
57833;DHT22;43667;53.036;6.740;2023-08-08T04:38:35;12.10;99.90
57833;DHT22;43667;53.036;6.740;2023-08-08T04:41:00;13.00;99.90
57833;DHT22;43667;53.036;6.740;2023-08-08T04:43:26;13.50;99.90
57833;DHT22;43667;53.036;6.740;2023-08-08T04:45:53;13.20;99.90
57833;DHT22;43667;53.036;6.740;2023-08-08T04:48:19;13.20;99.90
57833;DHT22;43667;53.036;6.740;2023-08-08T04:50:48;13.10;99.90
57833;DHT22;43667;53.036;6.740;2023-08-08T04:53:14;13.30;99.90
57833;DHT22;43667;53.036;6.740;2023-08-08T04:55:39;13.40;99.90
57833;DHT22;43667;53.036;6.740;2023-08-08T04:58:05;13.20;99.90
57833;DHT22;43667;53.036;6.740;2023-08-08T05:00:31;13.30;99.90
57833;DHT22;43667;53.036;6.740;2023-08-08T05:02:56;13.20;99.90
57833;DHT22;43667;53.036;6.740;2023-08-08T05:05:22;13.70;99.90
57833;DHT22;43667;53.036;6.740;2023-08-08T05:07:47;13.30;99.90
57833;DHT22;43667;53.036;6.740;2023-08-08T05:10:13;13.20;99.90
57833;DHT22;43667;53.036;6.740;2023-08-08T05:12:39;13.50;99.90
57833;DHT22;43667;53.036;6.740;2023-08-08T05:15:07;13.10;99.90
57833;DHT22;43667;53.036;6.740;2023-08-08T05:17:33;13.10;99.90
57833;DHT22;43667;53.036;6.740;2023-08-08T05:19:58;13.20;99.90
57833;DHT22;43667;53.036;6.740;2023-08-08T05:22:24;13.50;99.90
57833;DHT22;43667;53.036;6.740;2023-08-08T05:24:50;13.50;99.90
57833;DHT22;43667;53.036;6.740;2023-08-08T05:27:15;13.20;99.90
57833;DHT22;43667;53.036;6.740;2023-08-08T05:29:41;13.20;99.90
57833;DHT22;43667;53.036;6.740;2023-08-08T05:32:07;13.30;99.90
57833;DHT22;43667;53.036;6.740;2023-08-08T05:34:34;13.70;99.90
57833;DHT22;43667;53.036;6.740;2023-08-08T05:36:59;13.40;99.90
57833;DHT22;43667;53.036;6.740;2023-08-08T05:39:25;13.70;99.90
57833;DHT22;43667;53.036;6.740;2023-08-08T05:41:51;13.50;99.90
57833;DHT22;43667;53.036;6.740;2023-08-08T05:44:17;13.50;99.90
57833;DHT22;43667;53.036;6.740;2023-08-08T05:46:42;13.60;99.90
57833;DHT22;43667;53.036;6.740;2023-08-08T05:49:08;14.00;99.90
57833;DHT22;43667;53.036;6.740;2023-08-08T05:51:34;13.80;99.90
57833;DHT22;43667;53.036;6.740;2023-08-08T05:53:59;13.90;99.90
57833;DHT22;43667;53.036;6.740;2023-08-08T05:56:27;14.00;99.90
57833;DHT22;43667;53.036;6.740;2023-08-08T05:58:53;14.10;99.90
57833;DHT22;43667;53.036;6.740;2023-08-08T06:01:18;14.20;99.90
57833;DHT22;43667;53.036;6.740;2023-08-08T06:03:44;14.30;99.90
57833;DHT22;43667;53.036;6.740;2023-08-08T06:06:09;14.10;99.90
57833;DHT22;43667;53.036;6.740;2023-08-08T06:08:35;14.70;99.90
57833;DHT22;43667;53.036;6.740;2023-08-08T06:11:01;14.50;99.90
57833;DHT22;43667;53.036;6.740;2023-08-08T06:13:26;14.90;99.90
57833;DHT22;43667;53.036;6.740;2023-08-08T06:15:52;14.70;99.90
57833;DHT22;43667;53.036;6.740;2023-08-08T06:23:13;14.90;99.90
57833;DHT22;43667;53.036;6.740;2023-08-08T06:25:40;15.70;99.90
57833;DHT22;43667;53.036;6.740;2023-08-08T06:28:06;15.20;99.90
57833;DHT22;43667;53.036;6.740;2023-08-08T06:30:32;15.30;99.90
57833;DHT22;43667;53.036;6.740;2023-08-08T06:32:59;15.60;99.90
57833;DHT22;43667;53.036;6.740;2023-08-08T06:37:52;15.60;99.90
57833;DHT22;43667;53.036;6.740;2023-08-08T07:14:35;17.10;99.90
57833;DHT22;43667;53.036;6.740;2023-08-08T07:17:01;17.20;99.90
57833;DHT22;43667;53.036;6.740;2023-08-08T07:19:28;17.20;99.90
57833;DHT22;43667;53.036;6.740;2023-08-08T07:21:54;17.30;99.90
57833;DHT22;43667;53.036;6.740;2023-08-08T07:24:19;17.40;99.90
57833;DHT22;43667;53.036;6.740;2023-08-08T07:26:45;17.50;99.90
57833;DHT22;43667;53.036;6.740;2023-08-08T07:29:11;17.60;99.90
57833;DHT22;43667;53.036;6.740;2023-08-08T07:31:37;17.60;99.90
57833;DHT22;43667;53.036;6.740;2023-08-08T07:34:02;17.70;99.90
57833;DHT22;43667;53.036;6.740;2023-08-08T07:36:28;17.80;99.90
57833;DHT22;43667;53.036;6.740;2023-08-08T07:38:53;18.00;99.90
57833;DHT22;43667;53.036;6.740;2023-08-08T07:41:29;18.10;99.90
57833;DHT22;43667;53.036;6.740;2023-08-08T07:43:55;18.40;99.90
57833;DHT22;43667;53.036;6.740;2023-08-08T07:46:20;18.50;99.90
57833;DHT22;43667;53.036;6.740;2023-08-08T07:48:46;18.40;99.90
57833;DHT22;43667;53.036;6.740;2023-08-08T07:51:11;18.40;99.90
57833;DHT22;43667;53.036;6.740;2023-08-08T07:53:37;18.60;99.90
57833;DHT22;43667;53.036;6.740;2023-08-08T07:56:03;18.60;99.90
57833;DHT22;43667;53.036;6.740;2023-08-08T07:58:28;18.60;99.90
57833;DHT22;43667;53.036;6.740;2023-08-08T08:00:55;18.70;99.90
57833;DHT22;43667;53.036;6.740;2023-08-08T08:03:20;18.70;99.90
57833;DHT22;43667;53.036;6.740;2023-08-08T08:05:46;18.70;99.90
57833;DHT22;43667;53.036;6.740;2023-08-08T08:08:12;18.80;99.90
57833;DHT22;43667;53.036;6.740;2023-08-08T08:10:38;18.80;99.90
57833;DHT22;43667;53.036;6.740;2023-08-08T08:13:03;18.90;99.90
57833;DHT22;43667;53.036;6.740;2023-08-08T08:15:29;18.80;99.90
57833;DHT22;43667;53.036;6.740;2023-08-08T08:17:55;18.80;99.90
57833;DHT22;43667;53.036;6.740;2023-08-08T08:20:20;18.90;99.90
57833;DHT22;43667;53.036;6.740;2023-08-08T08:22:46;18.90;99.90
57833;DHT22;43667;53.036;6.740;2023-08-08T08:25:13;18.80;99.90
57833;DHT22;43667;53.036;6.740;2023-08-08T08:27:39;18.80;99.90
57833;DHT22;43667;53.036;6.740;2023-08-08T08:30:05;18.80;99.90
57833;DHT22;43667;53.036;6.740;2023-08-08T08:32:35;18.80;99.90
57833;DHT22;43667;53.036;6.740;2023-08-08T08:35:02;19.00;99.90
57833;DHT22;43667;53.036;6.740;2023-08-08T08:37:30;19.10;99.90
57833;DHT22;43667;53.036;6.740;2023-08-08T08:39:55;19.10;99.90
57833;DHT22;43667;53.036;6.740;2023-08-08T08:42:22;19.00;99.90
57833;DHT22;43667;53.036;6.740;2023-08-08T08:44:49;19.20;99.90
57833;DHT22;43667;53.036;6.740;2023-08-08T08:47:17;19.30;99.90
57833;DHT22;43667;53.036;6.740;2023-08-08T08:49:45;19.30;99.90
57833;DHT22;43667;53.036;6.740;2023-08-08T08:52:11;19.20;99.90
57833;DHT22;43667;53.036;6.740;2023-08-08T08:54:37;19.20;99.90
57833;DHT22;43667;53.036;6.740;2023-08-08T08:57:03;19.20;99.90
57833;DHT22;43667;53.036;6.740;2023-08-08T08:59:29;19.20;99.90
57833;DHT22;43667;53.036;6.740;2023-08-08T09:01:55;19.20;99.90
57833;DHT22;43667;53.036;6.740;2023-08-08T09:04:22;19.30;99.90
57833;DHT22;43667;53.036;6.740;2023-08-08T09:06:48;18.90;99.90
57833;DHT22;43667;53.036;6.740;2023-08-08T09:09:15;18.80;99.90
57833;DHT22;43667;53.036;6.740;2023-08-08T09:11:52;18.60;99.90
57833;DHT22;43667;53.036;6.740;2023-08-08T09:14:24;18.30;99.90
57833;DHT22;43667;53.036;6.740;2023-08-08T09:16:51;18.10;99.90
57833;DHT22;43667;53.036;6.740;2023-08-08T09:19:20;18.00;99.90
57833;DHT22;43667;53.036;6.740;2023-08-08T09:21:47;17.80;99.90
57833;DHT22;43667;53.036;6.740;2023-08-08T09:24:13;17.80;99.90
57833;DHT22;43667;53.036;6.740;2023-08-08T09:26:40;18.20;99.90
57833;DHT22;43667;53.036;6.740;2023-08-08T09:29:05;18.30;99.90
57833;DHT22;43667;53.036;6.740;2023-08-08T09:31:34;18.60;99.90
57833;DHT22;43667;53.036;6.740;2023-08-08T09:34:02;18.90;99.90
57833;DHT22;43667;53.036;6.740;2023-08-08T09:36:27;18.50;99.90
57833;DHT22;43667;53.036;6.740;2023-08-08T09:38:54;18.30;99.90
57833;DHT22;43667;53.036;6.740;2023-08-08T09:41:21;17.80;99.90
57833;DHT22;43667;53.036;6.740;2023-08-08T09:43:51;17.60;99.90
57833;DHT22;43667;53.036;6.740;2023-08-08T09:46:21;17.80;99.90
57833;DHT22;43667;53.036;6.740;2023-08-08T09:48:47;18.10;99.90
57833;DHT22;43667;53.036;6.740;2023-08-08T09:51:13;17.90;99.90
57833;DHT22;43667;53.036;6.740;2023-08-08T09:53:39;18.00;99.90
57833;DHT22;43667;53.036;6.740;2023-08-08T09:56:06;18.00;99.90
57833;DHT22;43667;53.036;6.740;2023-08-08T10:00:59;18.40;99.90
57833;DHT22;43667;53.036;6.740;2023-08-08T10:10:48;18.00;99.90
57833;DHT22;43667;53.036;6.740;2023-08-08T10:13:22;18.00;99.90
57833;DHT22;43667;53.036;6.740;2023-08-08T10:15:49;18.20;99.90
57833;DHT22;43667;53.036;6.740;2023-08-08T10:18:15;18.20;99.90
57833;DHT22;43667;53.036;6.740;2023-08-08T10:20:46;18.50;99.90
57833;DHT22;43667;53.036;6.740;2023-08-08T10:23:17;18.70;99.90
57833;DHT22;43667;53.036;6.740;2023-08-08T10:25:45;18.70;99.90
57833;DHT22;43667;53.036;6.740;2023-08-08T10:28:13;18.70;99.90
57833;DHT22;43667;53.036;6.740;2023-08-08T10:33:22;18.70;99.90
57833;DHT22;43667;53.036;6.740;2023-08-08T10:36:00;19.00;99.90
57833;DHT22;43667;53.036;6.740;2023-08-08T10:38:27;19.10;99.90
57833;DHT22;43667;53.036;6.740;2023-08-08T10:41:09;19.10;99.90
57833;DHT22;43667;53.036;6.740;2023-08-08T10:43:38;19.40;99.90
57833;DHT22;43667;53.036;6.740;2023-08-08T10:46:04;19.40;99.90
57833;DHT22;43667;53.036;6.740;2023-08-08T10:48:30;19.60;99.90
57833;DHT22;43667;53.036;6.740;2023-08-08T10:51:00;19.40;99.90
57833;DHT22;43667;53.036;6.740;2023-08-08T10:53:27;19.20;99.90
57833;DHT22;43667;53.036;6.740;2023-08-08T10:55:58;18.90;99.90
57833;DHT22;43667;53.036;6.740;2023-08-08T10:58:38;19.10;99.90
57833;DHT22;43667;53.036;6.740;2023-08-08T11:01:05;19.40;99.90
57833;DHT22;43667;53.036;6.740;2023-08-08T11:03:34;19.30;99.90
57833;DHT22;43667;53.036;6.740;2023-08-08T11:06:02;19.10;99.90
57833;DHT22;43667;53.036;6.740;2023-08-08T11:08:30;18.90;99.90
57833;DHT22;43667;53.036;6.740;2023-08-08T11:10:56;18.80;99.90
57833;DHT22;43667;53.036;6.740;2023-08-08T11:13:24;18.80;99.90
57833;DHT22;43667;53.036;6.740;2023-08-08T11:15:50;19.00;99.90
57833;DHT22;43667;53.036;6.740;2023-08-08T11:18:16;19.20;99.90
57833;DHT22;43667;53.036;6.740;2023-08-08T11:20:42;19.30;99.90
57833;DHT22;43667;53.036;6.740;2023-08-08T11:23:09;19.50;99.90
57833;DHT22;43667;53.036;6.740;2023-08-08T11:25:36;19.80;99.90
57833;DHT22;43667;53.036;6.740;2023-08-08T11:28:03;19.90;99.90
57833;DHT22;43667;53.036;6.740;2023-08-08T11:30:30;19.90;99.90
57833;DHT22;43667;53.036;6.740;2023-08-08T11:32:58;19.90;99.90
57833;DHT22;43667;53.036;6.740;2023-08-08T11:35:25;20.00;99.90
57833;DHT22;43667;53.036;6.740;2023-08-08T11:37:58;20.20;99.90
57833;DHT22;43667;53.036;6.740;2023-08-08T11:40:27;20.40;99.90
57833;DHT22;43667;53.036;6.740;2023-08-08T11:42:54;20.30;99.90
57833;DHT22;43667;53.036;6.740;2023-08-08T11:45:20;20.40;99.90
57833;DHT22;43667;53.036;6.740;2023-08-08T11:47:50;20.30;99.90
57833;DHT22;43667;53.036;6.740;2023-08-08T11:50:18;20.00;99.90
57833;DHT22;43667;53.036;6.740;2023-08-08T11:52:45;19.60;99.90
57833;DHT22;43667;53.036;6.740;2023-08-08T11:55:12;19.60;99.90
57833;DHT22;43667;53.036;6.740;2023-08-08T11:57:39;19.80;99.90
57833;DHT22;43667;53.036;6.740;2023-08-08T12:00:09;20.00;99.90
57833;DHT22;43667;53.036;6.740;2023-08-08T12:02:38;20.10;98.70
57833;DHT22;43667;53.036;6.740;2023-08-08T12:05:12;19.90;99.90
57833;DHT22;43667;53.036;6.740;2023-08-08T12:07:40;20.10;99.90
57833;DHT22;43667;53.036;6.740;2023-08-08T12:10:20;20.60;99.90
57833;DHT22;43667;53.036;6.740;2023-08-08T12:12:52;20.60;97.70
57833;DHT22;43667;53.036;6.740;2023-08-08T12:15:17;20.80;98.60
57833;DHT22;43667;53.036;6.740;2023-08-08T12:17:45;21.00;97.20
57833;DHT22;43667;53.036;6.740;2023-08-08T12:20:11;21.20;97.40
57833;DHT22;43667;53.036;6.740;2023-08-08T12:22:37;21.30;93.10
57833;DHT22;43667;53.036;6.740;2023-08-08T12:25:03;21.30;92.90
57833;DHT22;43667;53.036;6.740;2023-08-08T12:27:30;21.50;93.50
57833;DHT22;43667;53.036;6.740;2023-08-08T12:29:55;22.00;91.70
57833;DHT22;43667;53.036;6.740;2023-08-08T12:32:26;21.60;87.50
57833;DHT22;43667;53.036;6.740;2023-08-08T12:34:54;21.40;90.50
57833;DHT22;43667;53.036;6.740;2023-08-08T12:37:19;21.50;89.40
57833;DHT22;43667;53.036;6.740;2023-08-08T12:39:45;21.50;91.20
57833;DHT22;43667;53.036;6.740;2023-08-08T12:42:11;21.50;92.80
57833;DHT22;43667;53.036;6.740;2023-08-08T12:44:36;21.30;93.50
57833;DHT22;43667;53.036;6.740;2023-08-08T12:47:02;21.10;92.20
57833;DHT22;43667;53.036;6.740;2023-08-08T12:49:27;20.90;93.10
57833;DHT22;43667;53.036;6.740;2023-08-08T12:51:53;20.90;93.90
57833;DHT22;43667;53.036;6.740;2023-08-08T12:54:21;20.90;92.90
57833;DHT22;43667;53.036;6.740;2023-08-08T12:56:47;21.00;92.50
57833;DHT22;43667;53.036;6.740;2023-08-08T12:59:12;21.30;91.20
57833;DHT22;43667;53.036;6.740;2023-08-08T13:01:38;21.30;86.70
57833;DHT22;43667;53.036;6.740;2023-08-08T13:04:03;21.30;86.60
57833;DHT22;43667;53.036;6.740;2023-08-08T13:06:30;21.60;89.60
57833;DHT22;43667;53.036;6.740;2023-08-08T13:08:56;21.50;86.60
57833;DHT22;43667;53.036;6.740;2023-08-08T13:11:21;21.60;81.20
57833;DHT22;43667;53.036;6.740;2023-08-08T13:13:47;21.70;80.40
57833;DHT22;43667;53.036;6.740;2023-08-08T13:16:13;21.50;86.90
57833;DHT22;43667;53.036;6.740;2023-08-08T13:18:39;21.60;81.70
57833;DHT22;43667;53.036;6.740;2023-08-08T13:21:05;21.70;77.30
57833;DHT22;43667;53.036;6.740;2023-08-08T13:23:32;21.60;78.20
57833;DHT22;43667;53.036;6.740;2023-08-08T13:25:57;21.80;75.20
57833;DHT22;43667;53.036;6.740;2023-08-08T13:28:23;21.90;74.80
57833;DHT22;43667;53.036;6.740;2023-08-08T13:30:49;21.90;73.20
57833;DHT22;43667;53.036;6.740;2023-08-08T13:33:14;22.00;71.40
57833;DHT22;43667;53.036;6.740;2023-08-08T13:35:40;22.00;67.80
57833;DHT22;43667;53.036;6.740;2023-08-08T13:38:06;21.70;67.70
57833;DHT22;43667;53.036;6.740;2023-08-08T13:40:33;21.90;71.20
57833;DHT22;43667;53.036;6.740;2023-08-08T13:42:58;22.00;73.70
57833;DHT22;43667;53.036;6.740;2023-08-08T13:45:24;21.90;72.90
57833;DHT22;43667;53.036;6.740;2023-08-08T13:47:49;22.00;73.90
57833;DHT22;43667;53.036;6.740;2023-08-08T13:50:15;21.90;79.80
57833;DHT22;43667;53.036;6.740;2023-08-08T13:52:41;21.80;76.10
57833;DHT22;43667;53.036;6.740;2023-08-08T13:55:10;21.70;75.20
57833;DHT22;43667;53.036;6.740;2023-08-08T13:57:36;21.50;69.70
57833;DHT22;43667;53.036;6.740;2023-08-08T14:00:02;21.30;76.00
57833;DHT22;43667;53.036;6.740;2023-08-08T14:02:28;20.90;79.50
57833;DHT22;43667;53.036;6.740;2023-08-08T14:04:55;20.90;85.60
57833;DHT22;43667;53.036;6.740;2023-08-08T14:07:21;21.00;86.50
57833;DHT22;43667;53.036;6.740;2023-08-08T14:09:47;21.10;86.50
57833;DHT22;43667;53.036;6.740;2023-08-08T14:12:12;21.30;85.30
57833;DHT22;43667;53.036;6.740;2023-08-08T14:14:38;21.40;78.10
57833;DHT22;43667;53.036;6.740;2023-08-08T14:17:03;21.20;79.80
57833;DHT22;43667;53.036;6.740;2023-08-08T14:19:29;21.10;85.90
57833;DHT22;43667;53.036;6.740;2023-08-08T14:21:55;21.00;86.20
57833;DHT22;43667;53.036;6.740;2023-08-08T14:24:20;20.80;87.80
57833;DHT22;43667;53.036;6.740;2023-08-08T14:26:46;20.90;91.20
57833;DHT22;43667;53.036;6.740;2023-08-08T14:29:12;21.00;92.10
57833;DHT22;43667;53.036;6.740;2023-08-08T14:31:38;21.20;90.70
57833;DHT22;43667;53.036;6.740;2023-08-08T14:34:04;21.20;91.00
57833;DHT22;43667;53.036;6.740;2023-08-08T14:36:29;21.00;90.30
57833;DHT22;43667;53.036;6.740;2023-08-08T14:38:55;20.70;88.90
57833;DHT22;43667;53.036;6.740;2023-08-08T14:41:21;20.40;92.20
57833;DHT22;43667;53.036;6.740;2023-08-08T14:43:46;20.70;91.10
57833;DHT22;43667;53.036;6.740;2023-08-08T14:46:12;20.60;91.40
57833;DHT22;43667;53.036;6.740;2023-08-08T14:48:38;20.70;91.20
57833;DHT22;43667;53.036;6.740;2023-08-08T14:51:03;20.60;90.10
57833;DHT22;43667;53.036;6.740;2023-08-08T14:53:29;20.50;90.70
57833;DHT22;43667;53.036;6.740;2023-08-08T14:55:55;20.40;89.70
57833;DHT22;43667;53.036;6.740;2023-08-08T14:58:20;20.30;85.60
57833;DHT22;43667;53.036;6.740;2023-08-08T15:00:46;20.60;82.80
57833;DHT22;43667;53.036;6.740;2023-08-08T15:03:12;20.80;79.80
57833;DHT22;43667;53.036;6.740;2023-08-08T15:05:39;20.70;80.40
57833;DHT22;43667;53.036;6.740;2023-08-08T15:08:05;21.10;82.40
57833;DHT22;43667;53.036;6.740;2023-08-08T15:10:31;21.40;79.60
57833;DHT22;43667;53.036;6.740;2023-08-08T15:12:57;21.70;76.40
57833;DHT22;43667;53.036;6.740;2023-08-08T15:15:22;21.70;72.80
57833;DHT22;43667;53.036;6.740;2023-08-08T15:17:49;21.80;71.60
57833;DHT22;43667;53.036;6.740;2023-08-08T15:20:15;22.00;72.30
57833;DHT22;43667;53.036;6.740;2023-08-08T15:22:41;21.90;72.70
57833;DHT22;43667;53.036;6.740;2023-08-08T15:25:07;22.10;73.40
57833;DHT22;43667;53.036;6.740;2023-08-08T15:27:32;22.60;69.60
57833;DHT22;43667;53.036;6.740;2023-08-08T15:29:58;22.90;65.20
57833;DHT22;43667;53.036;6.740;2023-08-08T15:32:23;23.20;62.00
57833;DHT22;43667;53.036;6.740;2023-08-08T15:34:49;23.30;59.10
57833;DHT22;43667;53.036;6.740;2023-08-08T15:37:15;23.30;59.30
57833;DHT22;43667;53.036;6.740;2023-08-08T15:39:40;23.50;58.90
57833;DHT22;43667;53.036;6.740;2023-08-08T15:42:06;23.60;58.30
57833;DHT22;43667;53.036;6.740;2023-08-08T15:44:32;24.00;57.20
57833;DHT22;43667;53.036;6.740;2023-08-08T15:46:57;24.10;55.50
57833;DHT22;43667;53.036;6.740;2023-08-08T15:49:23;24.40;54.80
57833;DHT22;43667;53.036;6.740;2023-08-08T15:51:48;24.50;54.00
57833;DHT22;43667;53.036;6.740;2023-08-08T15:54:14;24.50;53.50
57833;DHT22;43667;53.036;6.740;2023-08-08T15:56:40;24.50;52.60
57833;DHT22;43667;53.036;6.740;2023-08-08T15:59:06;24.30;52.20
57833;DHT22;43667;53.036;6.740;2023-08-08T16:01:32;24.40;52.00
57833;DHT22;43667;53.036;6.740;2023-08-08T16:03:57;24.60;51.60
57833;DHT22;43667;53.036;6.740;2023-08-08T16:06:23;24.90;51.00
57833;DHT22;43667;53.036;6.740;2023-08-08T16:08:49;24.70;49.80
57833;DHT22;43667;53.036;6.740;2023-08-08T16:11:15;24.70;50.30
57833;DHT22;43667;53.036;6.740;2023-08-08T16:13:41;24.80;49.90
57833;DHT22;43667;53.036;6.740;2023-08-08T16:16:07;25.00;47.50
57833;DHT22;43667;53.036;6.740;2023-08-08T16:18:32;25.10;47.70
57833;DHT22;43667;53.036;6.740;2023-08-08T16:20:58;25.40;48.30
57833;DHT22;43667;53.036;6.740;2023-08-08T16:23:23;25.80;46.90
57833;DHT22;43667;53.036;6.740;2023-08-08T16:25:49;25.90;46.80